This is the latest recevied weather packets stored in our database for station/object KSL2-WX. If no packets are shown the sender has not sent any weather packets the latest 10 day(s).
| Time | Temp. | Humidity | Pressure | Rain* | Wind** | Luminosity | Snow |
|---|---|---|---|---|---|---|---|
| 1788236239 | 14.44° C | 82% | 1017.4 hPa | - | - | - | - |
| 1788232638 | 11.67° C | 94% | 1017.5 hPa | - | - | - | - |
| 1788229039 | 11.11° C | 95% | 1017.5 hPa | - | - | - | - |
| 1788225439 | 11.67° C | 95% | 1017.5 hPa | - | - | - | - |
| 1788221839 | 12.22° C | 93% | 1017.7 hPa | - | - | - | - |
| 1788218239 | 13.33° C | 91% | 1017.4 hPa | - | - | - | - |
| 1788214639 | 13.33° C | 91% | 1017.1 hPa | - | - | - | - |
| 1788211038 | 13.33° C | 91% | 1016.8 hPa | - | - | - | - |
| 1788207439 | 13.89° C | 90% | 1017.2 hPa | - | - | - | - |
| 1788203839 | 13.89° C | 88% | 1017.6 hPa | - | - | - | - |
| 1788200239 | 13.89° C | 87% | 1018 hPa | - | - | - | - |
| 1788196640 | 14.44° C | 87% | 1017.5 hPa | - | - | - | - |
| 1788193039 | 13.89° C | 86% | 1016.9 hPa | - | - | - | - |
| 1788189439 | 13.89° C | 83% | 1017.6 hPa | - | - | - | - |
| 1788185838 | 14.44° C | 80% | 1017.7 hPa | - | - | - | - |
| 1788182240 | 15° C | 80% | 1018 hPa | - | - | - | - |
| 1788178639 | 15° C | 80% | 1018 hPa | - | - | - | - |
| 1788175039 | 15.56° C | 79% | 1017.5 hPa | - | - | - | - |
| 1788171440 | 16.67° C | 73% | 1017.4 hPa | - | - | - | - |
| 1788167839 | 16.67° C | 71% | 1017 hPa | - | - | - | - |
| 1788164239 | 16.11° C | 75% | 1017.5 hPa | - | - | - | - |
| 1788160639 | 15° C | 80% | 1017.9 hPa | - | - | - | - |
| 1788153439 | 14.44° C | 86% | 1017.6 hPa | - | - | - | - |
| 1788149838 | 13.89° C | 88% | 1017.3 hPa | - | - | - | - |
| 1788146239 | 13.89° C | 88% | 1017.3 hPa | - | - | - | - |
* Rain since midnight (hover to see other rain measurements)
** Current wind speed in m/s (hover to see current wind gust speed)